createdAt,value
2019-01-24T00:00:14.988Z,6.57
2019-01-24T00:01:18.643Z,6.20
2019-01-24T00:02:22.250Z,5.10
2019-01-24T00:03:25.773Z,6.30
2019-01-24T00:04:29.265Z,4.30
2019-01-24T00:05:32.804Z,3.63
2019-01-24T00:06:36.447Z,4.40
2019-01-24T00:07:39.956Z,3.50
2019-01-24T00:08:43.486Z,4.90
2019-01-24T00:09:46.988Z,3.70
2019-01-24T00:10:50.621Z,6.80
2019-01-24T00:11:54.111Z,5.77
2019-01-24T00:12:57.672Z,3.80
2019-01-24T00:14:01.321Z,3.90
2019-01-24T00:15:07.639Z,5.57
2019-01-24T00:16:11.214Z,3.70
2019-01-24T00:17:14.755Z,3.60
2019-01-24T00:18:18.379Z,5.03
2019-01-24T00:19:21.915Z,4.70
2019-01-24T00:20:25.580Z,3.70
2019-01-24T00:21:29.144Z,10.47
2019-01-24T00:22:32.631Z,3.77
2019-01-24T00:23:36.195Z,16.60
2019-01-24T00:24:39.721Z,2.63
2019-01-24T00:25:43.199Z,7.60
2019-01-24T00:26:46.756Z,3.77
2019-01-24T00:27:50.438Z,4.87
2019-01-24T00:28:53.884Z,2.97
2019-01-24T00:29:57.410Z,3.40
2019-01-24T00:31:00.914Z,3.50
2019-01-24T00:32:04.477Z,7.77
2019-01-24T00:33:08.106Z,3.67
2019-01-24T00:34:11.606Z,4.10
2019-01-24T00:35:15.546Z,2.73
2019-01-24T00:36:19.169Z,5.27
2019-01-24T00:37:22.666Z,2.87
2019-01-24T00:38:26.228Z,2.63
2019-01-24T00:39:29.773Z,3.03
2019-01-24T00:40:33.404Z,3.73
2019-01-24T00:41:37.007Z,4.10
2019-01-24T00:42:40.545Z,2.73
2019-01-24T00:43:44.154Z,2.43
2019-01-24T00:44:47.618Z,4.33
2019-01-24T00:45:51.373Z,3.23
2019-01-24T00:46:54.926Z,2.50
2019-01-24T00:47:58.484Z,4.10
2019-01-24T00:49:02.028Z,3.20
2019-01-24T00:50:08.533Z,5.67
2019-01-24T00:51:12.059Z,3.87
2019-01-24T00:52:15.612Z,5.40
2019-01-24T00:53:19.102Z,4.40
2019-01-24T00:54:22.594Z,4.13
2019-01-24T00:55:26.166Z,3.30
2019-01-24T00:56:29.681Z,3.10
2019-01-24T00:57:33.171Z,3.30
2019-01-24T00:58:36.736Z,3.30
2019-01-24T00:59:40.290Z,3.20
2019-01-24T01:00:43.913Z,3.30
2019-01-24T01:01:47.504Z,3.50
2019-01-24T01:02:51.230Z,3.43
2019-01-24T01:03:54.716Z,3.17
2019-01-24T01:04:58.260Z,4.90
2019-01-24T01:06:02.219Z,3.00
2019-01-24T01:07:06.237Z,3.70
2019-01-24T01:08:09.846Z,3.37
2019-01-24T01:09:13.408Z,4.43
2019-01-24T01:10:17.342Z,3.30
2019-01-24T01:11:20.897Z,3.43
2019-01-24T01:12:24.490Z,2.67
2019-01-24T01:13:27.976Z,4.80
2019-01-24T01:14:31.461Z,3.10
2019-01-24T01:15:35.082Z,3.20
2019-01-24T01:16:38.640Z,4.57
2019-01-24T01:17:42.271Z,3.03
2019-01-24T01:18:45.897Z,6.37
2019-01-24T01:19:49.470Z,2.63
2019-01-24T01:20:54.658Z,4.17
2019-01-24T01:21:58.245Z,3.10
2019-01-24T01:23:01.927Z,3.30
2019-01-24T01:24:05.640Z,3.47
2019-01-24T01:25:11.577Z,3.43
2019-01-24T01:26:15.050Z,3.83
2019-01-24T01:27:18.662Z,3.60
2019-01-24T01:28:22.268Z,3.37
2019-01-24T01:29:25.741Z,2.60
2019-01-24T01:30:29.309Z,4.30
2019-01-24T01:31:32.866Z,4.23
2019-01-24T01:32:36.444Z,4.33
2019-01-24T01:33:39.948Z,4.30
2019-01-24T01:34:43.499Z,3.20
2019-01-24T01:35:47.040Z,3.10
2019-01-24T01:36:50.617Z,4.43
2019-01-24T01:37:54.271Z,12.20
2019-01-24T01:38:57.773Z,2.53
2019-01-24T01:40:01.344Z,4.17
2019-01-24T01:41:05.150Z,4.87
2019-01-24T01:42:08.651Z,3.37
2019-01-24T01:43:12.297Z,8.20
2019-01-24T01:44:15.877Z,2.60
2019-01-24T01:45:21.361Z,3.03
2019-01-24T01:46:24.822Z,3.97
2019-01-24T01:47:28.395Z,2.80
2019-01-24T01:48:31.931Z,3.03
2019-01-24T01:49:35.472Z,4.30
2019-01-24T01:50:39.056Z,5.60
2019-01-24T01:51:42.593Z,2.53
2019-01-24T01:52:46.230Z,4.67
2019-01-24T01:53:49.808Z,3.07
2019-01-24T01:54:53.343Z,4.10
2019-01-24T01:55:56.845Z,4.33
2019-01-24T01:57:00.404Z,3.57
2019-01-24T01:58:04.117Z,3.67
2019-01-24T01:59:07.650Z,2.80
2019-01-24T02:00:20.639Z,4.60
2019-01-24T02:01:24.102Z,2.77
2019-01-24T02:02:27.605Z,4.77
2019-01-24T02:03:31.167Z,2.98
2019-01-24T02:04:34.768Z,4.47
2019-01-24T02:05:38.263Z,3.20
2019-01-24T02:06:41.818Z,3.75
2019-01-24T02:07:45.387Z,4.40
2019-01-24T02:08:48.931Z,3.03
2019-01-24T02:09:52.495Z,2.70
2019-01-24T02:10:56.083Z,6.57
2019-01-24T02:11:59.687Z,2.77
2019-01-24T02:13:03.192Z,4.73
2019-01-24T02:14:06.968Z,2.60
2019-01-24T02:15:12.260Z,2.90
2019-01-24T02:16:15.769Z,2.67
2019-01-24T02:17:19.240Z,3.97
2019-01-24T02:18:22.786Z,3.10
2019-01-24T02:19:26.288Z,3.93
2019-01-24T02:20:29.847Z,4.40
2019-01-24T02:21:33.777Z,2.90
2019-01-24T02:22:37.609Z,9.03
2019-01-24T02:23:41.125Z,5.13
2019-01-24T02:24:44.775Z,5.10
2019-01-24T02:25:48.450Z,7.00
2019-01-24T02:26:51.902Z,2.90
2019-01-24T02:27:55.474Z,6.43
2019-01-24T02:28:59.049Z,3.70
2019-01-24T02:30:02.575Z,2.47
2019-01-24T02:31:06.216Z,3.80
2019-01-24T02:32:09.838Z,3.10
2019-01-24T02:33:13.409Z,3.20
2019-01-24T02:34:16.889Z,3.00
2019-01-24T02:35:20.508Z,4.33
2019-01-24T02:36:24.049Z,4.12
2019-01-24T02:37:27.534Z,3.37
2019-01-24T02:38:31.110Z,2.83
2019-01-24T02:39:34.644Z,3.22
2019-01-24T02:40:38.168Z,4.20
2019-01-24T02:41:41.700Z,4.55
2019-01-24T02:42:45.330Z,5.23
2019-01-24T02:43:48.837Z,2.60
2019-01-24T02:44:52.331Z,3.07
2019-01-24T02:45:55.950Z,3.03
2019-01-24T02:46:59.635Z,3.50
2019-01-24T02:48:03.085Z,2.37
2019-01-24T02:49:06.689Z,4.50
2019-01-24T02:50:13.418Z,2.10
2019-01-24T02:51:16.919Z,4.30
2019-01-24T02:52:20.511Z,2.40
2019-01-24T02:53:24.217Z,2.67
2019-01-24T02:54:27.895Z,2.40
2019-01-24T02:55:31.891Z,5.13
2019-01-24T02:56:35.399Z,2.90
2019-01-24T02:57:38.897Z,11.13
2019-01-24T02:58:42.384Z,2.93
2019-01-24T02:59:45.963Z,7.43
2019-01-24T03:00:49.582Z,4.57
2019-01-24T03:01:53.103Z,2.67
2019-01-24T03:02:56.579Z,1.90
2019-01-24T03:04:00.265Z,4.47
2019-01-24T03:05:05.527Z,4.42
2019-01-24T03:06:09.189Z,3.10
2019-01-24T03:07:12.739Z,4.67
2019-01-24T03:08:16.367Z,2.97
2019-01-24T03:09:19.930Z,3.52
2019-01-24T03:10:23.420Z,2.67
2019-01-24T03:11:26.941Z,3.72
2019-01-24T03:12:30.463Z,7.65
2019-01-24T03:13:33.999Z,5.62
2019-01-24T03:14:37.531Z,2.70
2019-01-24T03:15:41.025Z,3.10
2019-01-24T03:16:44.589Z,4.08
2019-01-24T03:17:48.244Z,3.47
2019-01-24T03:18:52.302Z,2.50
2019-01-24T03:19:55.783Z,3.17
2019-01-24T03:20:59.283Z,2.20
2019-01-24T03:22:02.805Z,2.47
2019-01-24T03:23:06.451Z,2.67
2019-01-24T03:24:09.952Z,5.12
2019-01-24T03:25:15.712Z,6.87
2019-01-24T03:26:19.353Z,3.10
2019-01-24T03:27:23.000Z,3.47
2019-01-24T03:28:26.515Z,3.55
2019-01-24T03:29:30.014Z,2.45
2019-01-24T03:30:33.567Z,2.80
2019-01-24T03:31:37.153Z,2.98
2019-01-24T03:32:40.676Z,2.40
2019-01-24T03:33:44.245Z,3.53
2019-01-24T03:34:47.887Z,2.35
2019-01-24T03:35:51.449Z,4.47
2019-01-24T03:36:54.951Z,2.10
2019-01-24T03:37:58.452Z,2.20
2019-01-24T03:39:02.006Z,4.47
2019-01-24T03:40:08.917Z,4.73
2019-01-24T03:41:12.404Z,3.93
2019-01-24T03:42:15.882Z,3.03
2019-01-24T03:43:19.437Z,4.77
2019-01-24T03:44:22.960Z,2.33
2019-01-24T03:45:26.535Z,3.20
2019-01-24T03:46:30.111Z,4.15
2019-01-24T03:47:33.632Z,2.75
2019-01-24T03:48:37.180Z,4.10
2019-01-24T03:49:40.706Z,5.60
2019-01-24T03:50:44.331Z,2.45
2019-01-24T03:51:47.812Z,2.50
2019-01-24T03:52:51.695Z,2.65
2019-01-24T03:53:55.249Z,2.60
2019-01-24T03:54:58.874Z,2.83
2019-01-24T03:56:02.607Z,3.40
2019-01-24T03:57:06.145Z,2.53
2019-01-24T03:58:09.889Z,2.85
2019-01-24T03:59:13.486Z,2.80
2019-01-24T04:00:22.802Z,2.77
2019-01-24T04:01:26.301Z,2.13
2019-01-24T04:02:29.913Z,3.27
2019-01-24T04:03:33.561Z,2.92
2019-01-24T04:04:37.145Z,2.97
2019-01-24T04:05:40.780Z,2.00
2019-01-24T04:06:44.324Z,3.03
2019-01-24T04:07:47.801Z,2.80
2019-01-24T04:08:51.377Z,2.10
2019-01-24T04:09:54.955Z,8.13
2019-01-24T04:10:58.527Z,3.20
2019-01-24T04:12:02.015Z,3.70
2019-01-24T04:13:05.585Z,2.93
2019-01-24T04:14:09.092Z,2.90
2019-01-24T04:15:15.431Z,2.33
2019-01-24T04:16:18.995Z,1.93
2019-01-24T04:17:22.470Z,2.10
2019-01-24T04:18:26.166Z,2.63
2019-01-24T04:19:29.623Z,6.53
2019-01-24T04:20:33.191Z,2.03
2019-01-24T04:21:36.724Z,2.77
2019-01-24T04:22:40.263Z,3.50
2019-01-24T04:23:43.759Z,5.50
2019-01-24T04:24:47.248Z,2.40
2019-01-24T04:25:50.719Z,4.43
2019-01-24T04:26:54.337Z,3.90
2019-01-24T04:27:57.798Z,2.73
2019-01-24T04:29:01.313Z,2.80
2019-01-24T04:30:07.915Z,2.30
2019-01-24T04:31:11.459Z,2.47
2019-01-24T04:32:15.059Z,2.07
2019-01-24T04:33:18.527Z,2.43
2019-01-24T04:34:22.005Z,1.63
2019-01-24T04:35:25.638Z,2.07
2019-01-24T04:36:29.247Z,2.17
2019-01-24T04:37:32.775Z,2.27
2019-01-24T04:38:36.297Z,2.77
2019-01-24T04:39:39.820Z,1.57
2019-01-24T04:40:43.397Z,3.23
2019-01-24T04:41:47.116Z,2.40
2019-01-24T04:42:50.754Z,2.83
2019-01-24T04:43:56.535Z,2.23
2019-01-24T04:45:00.010Z,1.50
2019-01-24T04:46:03.510Z,2.37
2019-01-24T04:47:07.006Z,4.90
2019-01-24T04:48:10.530Z,2.20
2019-01-24T04:49:14.162Z,2.17
2019-01-24T04:50:18.519Z,1.60
2019-01-24T04:51:22.015Z,2.07
2019-01-24T04:52:25.512Z,1.67
2019-01-24T04:53:29.077Z,1.47
2019-01-24T04:54:32.582Z,2.73
2019-01-24T04:55:36.134Z,1.47
2019-01-24T04:56:39.724Z,1.60
2019-01-24T04:57:43.227Z,1.70
2019-01-24T04:58:46.765Z,1.93
2019-01-24T04:59:50.271Z,1.50
2019-01-24T05:00:53.742Z,3.43
2019-01-24T05:01:57.314Z,2.07
2019-01-24T05:03:00.795Z,3.23
2019-01-24T05:04:04.527Z,5.53
2019-01-24T05:05:08.109Z,1.70
2019-01-24T05:06:11.617Z,2.20
2019-01-24T05:07:15.199Z,2.80
2019-01-24T05:08:18.715Z,1.70
2019-01-24T05:09:22.232Z,3.10
2019-01-24T05:10:25.878Z,3.13
2019-01-24T05:11:29.431Z,3.83
2019-01-24T05:12:32.906Z,3.13
2019-01-24T05:13:36.479Z,5.50
2019-01-24T05:14:40.013Z,2.50
2019-01-24T05:15:43.501Z,4.00
2019-01-24T05:16:47.094Z,4.60
2019-01-24T05:17:50.731Z,7.07
2019-01-24T05:18:54.296Z,4.00
2019-01-24T05:19:57.870Z,1.67
2019-01-24T05:21:01.492Z,1.63
2019-01-24T05:22:05.194Z,1.70
2019-01-24T05:23:08.802Z,3.40
2019-01-24T05:24:12.302Z,2.03
2019-01-24T05:25:17.248Z,2.00
2019-01-24T05:26:20.829Z,5.03
2019-01-24T05:27:24.335Z,2.57
2019-01-24T05:28:27.886Z,3.90
2019-01-24T05:29:31.373Z,2.00
2019-01-24T05:30:34.973Z,2.43
2019-01-24T05:31:38.466Z,11.10
2019-01-24T05:32:42.028Z,5.97
2019-01-24T05:33:45.957Z,1.93
2019-01-24T05:34:49.529Z,3.63
2019-01-24T05:35:53.611Z,1.60
2019-01-24T05:37:04.847Z,4.50
2019-01-24T05:38:08.840Z,9.00
2019-01-24T05:39:12.553Z,2.00
2019-01-24T05:40:16.346Z,2.03
2019-01-24T05:41:19.885Z,2.50
2019-01-24T05:42:23.440Z,3.37
2019-01-24T05:43:26.891Z,2.50
2019-01-24T05:44:30.525Z,2.60
2019-01-24T05:45:34.055Z,5.63
2019-01-24T05:46:37.579Z,11.97
2019-01-24T05:47:41.236Z,4.83
2019-01-24T05:48:44.829Z,3.60
2019-01-24T05:49:48.383Z,3.30
2019-01-24T05:50:53.586Z,10.40
2019-01-24T05:51:57.134Z,7.93
2019-01-24T05:53:00.637Z,6.93
2019-01-24T05:54:04.384Z,9.20
2019-01-24T05:55:10.100Z,6.30
2019-01-24T05:56:13.598Z,4.87
2019-01-24T05:57:17.270Z,33.87
2019-01-24T05:58:20.752Z,11.50
2019-01-24T05:59:24.318Z,14.70
2019-01-24T06:00:37.998Z,18.40
2019-01-24T06:01:41.676Z,22.50
2019-01-24T06:02:45.428Z,19.57
2019-01-24T06:03:49.027Z,19.83
2019-01-24T06:04:52.558Z,20.37
2019-01-24T06:05:56.146Z,16.13
2019-01-24T06:06:59.802Z,24.40
2019-01-24T06:08:03.321Z,23.43
2019-01-24T06:09:07.837Z,25.23
2019-01-24T06:10:13.969Z,23.47
2019-01-24T06:11:17.505Z,17.43
2019-01-24T06:12:21.178Z,14.30
2019-01-24T06:13:24.694Z,22.00
2019-01-24T06:14:28.180Z,16.07
2019-01-24T06:15:31.822Z,19.15
2019-01-24T06:16:35.351Z,19.60
2019-01-24T06:17:38.859Z,22.37
2019-01-24T06:18:42.404Z,15.60
2019-01-24T06:19:45.989Z,22.13
2019-01-24T06:20:49.481Z,22.33
2019-01-24T06:21:53.044Z,22.80
2019-01-24T06:22:56.626Z,18.70
2019-01-24T06:24:00.217Z,19.40
2019-01-24T06:25:05.264Z,28.73
2019-01-24T06:26:08.842Z,19.40
2019-01-24T06:27:12.342Z,19.53
2019-01-24T06:28:15.922Z,22.53
2019-01-24T06:29:19.586Z,22.67
2019-01-24T06:30:23.722Z,21.03
2019-01-24T06:31:27.311Z,23.57
2019-01-24T06:32:30.865Z,23.60
2019-01-24T06:33:34.362Z,30.50
2019-01-24T06:34:37.892Z,31.83
2019-01-24T06:35:41.677Z,27.23
2019-01-24T06:36:45.178Z,30.57
2019-01-24T06:37:48.880Z,33.57
2019-01-24T06:38:52.373Z,34.10
2019-01-24T06:39:55.980Z,33.13
2019-01-24T06:40:59.536Z,31.47
2019-01-24T06:42:03.118Z,28.83
2019-01-24T06:43:06.693Z,35.93
2019-01-24T06:44:10.326Z,30.83
2019-01-24T06:45:16.748Z,29.70
2019-01-24T06:46:20.302Z,32.27
2019-01-24T06:47:23.878Z,27.33
2019-01-24T06:48:27.497Z,31.63
2019-01-24T06:49:30.942Z,31.20
2019-01-24T06:50:34.479Z,30.20
2019-01-24T06:51:37.974Z,40.70
2019-01-24T06:52:41.677Z,40.47
2019-01-24T06:53:45.140Z,34.60
2019-01-24T06:54:48.711Z,35.60
2019-01-24T06:55:52.328Z,38.20
2019-01-24T06:56:55.962Z,42.00
2019-01-24T06:57:59.529Z,47.73
2019-01-24T06:59:03.038Z,36.67
2019-01-24T07:00:20.396Z,38.47
2019-01-24T07:01:23.948Z,48.53
2019-01-24T07:02:27.512Z,41.70
2019-01-24T07:03:31.044Z,45.23
2019-01-24T07:04:34.545Z,37.97
2019-01-24T07:05:38.150Z,38.30
2019-01-24T07:06:41.734Z,34.20
2019-01-24T07:07:45.379Z,40.40
2019-01-24T07:08:48.863Z,33.07
2019-01-24T07:09:52.453Z,41.10
2019-01-24T07:10:56.105Z,33.93
2019-01-24T07:11:59.716Z,35.17
2019-01-24T07:13:03.984Z,32.60
2019-01-24T07:14:07.787Z,37.93
2019-01-24T07:15:14.305Z,29.97
2019-01-24T07:16:17.872Z,36.70
2019-01-24T07:17:21.410Z,28.60
2019-01-24T07:18:25.005Z,32.03
2019-01-24T07:19:28.529Z,35.20
2019-01-24T07:20:32.108Z,29.70
2019-01-24T07:21:35.591Z,31.47
2019-01-24T07:22:39.636Z,29.33
2019-01-24T07:23:43.105Z,28.67
2019-01-24T07:24:46.669Z,30.40
2019-01-24T07:25:50.165Z,29.03
2019-01-24T07:26:53.663Z,29.00
2019-01-24T07:27:57.250Z,31.10
2019-01-24T07:29:00.780Z,30.43
2019-01-24T07:30:07.313Z,25.50
2019-01-24T07:31:10.848Z,23.53
2019-01-24T07:32:14.400Z,26.70
2019-01-24T07:33:17.924Z,25.27
2019-01-24T07:34:21.507Z,27.77
2019-01-24T07:35:25.057Z,28.03
2019-01-24T07:36:28.719Z,25.40
2019-01-24T07:37:32.228Z,28.23
2019-01-24T07:38:35.808Z,21.97
2019-01-24T07:39:39.380Z,24.83
2019-01-24T07:40:42.909Z,24.53
2019-01-24T07:41:46.512Z,28.30
2019-01-24T07:42:50.555Z,25.17
2019-01-24T07:43:54.125Z,24.63
2019-01-24T07:44:57.615Z,22.70
2019-01-24T07:46:01.190Z,23.40
2019-01-24T07:47:04.818Z,23.60
2019-01-24T07:48:08.463Z,21.83
2019-01-24T07:49:11.970Z,25.43
2019-01-24T07:50:15.615Z,25.80
2019-01-24T07:51:19.158Z,25.47
2019-01-24T07:52:22.676Z,22.80
2019-01-24T07:53:26.191Z,20.10
2019-01-24T07:54:29.709Z,24.23
2019-01-24T07:55:33.317Z,24.33
2019-01-24T07:56:36.906Z,21.30
2019-01-24T07:57:42.537Z,20.80
2019-01-24T07:58:46.116Z,25.97
2019-01-24T07:59:49.647Z,23.20
2019-01-24T08:00:54.759Z,19.60
2019-01-24T08:01:58.286Z,21.73
2019-01-24T08:03:01.878Z,23.20
2019-01-24T08:04:05.609Z,20.70
2019-01-24T08:05:11.543Z,20.33
2019-01-24T08:06:15.138Z,22.07
2019-01-24T08:07:18.689Z,17.17
2019-01-24T08:08:22.272Z,21.73
2019-01-24T08:09:25.856Z,18.80
2019-01-24T08:10:29.521Z,18.53
2019-01-24T08:11:33.104Z,22.70
2019-01-24T08:12:36.666Z,16.10
2019-01-24T08:13:40.188Z,18.67
2019-01-24T08:14:43.818Z,19.10
2019-01-24T08:15:47.503Z,17.40
2019-01-24T08:16:51.025Z,17.33
2019-01-24T08:17:54.671Z,17.87
2019-01-24T08:18:58.167Z,17.80
2019-01-24T08:20:01.753Z,18.07
2019-01-24T08:21:05.507Z,16.00
2019-01-24T08:22:09.109Z,16.73
2019-01-24T08:23:12.593Z,16.80
2019-01-24T08:24:16.099Z,22.70
2019-01-24T08:25:19.880Z,21.47
2019-01-24T08:26:23.456Z,15.60
2019-01-24T08:27:26.997Z,14.43
2019-01-24T08:28:30.603Z,17.90
2019-01-24T08:29:34.221Z,19.20
2019-01-24T08:30:37.825Z,17.47
2019-01-24T08:31:41.322Z,15.73
2019-01-24T08:32:45.023Z,18.20
2019-01-24T08:33:48.537Z,16.20
2019-01-24T08:34:52.168Z,13.87
2019-01-24T08:35:55.730Z,17.43
2019-01-24T08:36:59.270Z,17.67
2019-01-24T08:38:03.020Z,14.67
2019-01-24T08:39:08.546Z,16.03
2019-01-24T08:40:17.590Z,14.17
2019-01-24T08:41:21.206Z,17.67
2019-01-24T08:42:24.714Z,18.13
2019-01-24T08:43:28.274Z,17.03
2019-01-24T08:44:31.859Z,15.40
2019-01-24T08:45:35.410Z,15.10
2019-01-24T08:46:38.966Z,15.33
2019-01-24T08:47:42.554Z,15.03
2019-01-24T08:48:46.038Z,14.40
2019-01-24T08:49:49.553Z,18.20
2019-01-24T08:50:54.727Z,15.53
2019-01-24T08:51:58.275Z,16.43
2019-01-24T08:53:01.794Z,14.20
2019-01-24T08:54:05.571Z,12.20
2019-01-24T08:55:12.127Z,17.50
2019-01-24T08:56:15.607Z,15.33
2019-01-24T08:57:19.228Z,13.37
2019-01-24T08:58:22.748Z,14.40
2019-01-24T08:59:29.755Z,12.77
2019-01-24T09:00:31.570Z,17.10
2019-01-24T09:01:35.101Z,14.33
2019-01-24T09:02:38.604Z,16.20
2019-01-24T09:03:43.110Z,14.10
2019-01-24T09:04:46.622Z,14.27
2019-01-24T09:05:50.132Z,17.50
2019-01-24T09:06:53.623Z,13.10
2019-01-24T09:07:57.385Z,12.50
2019-01-24T09:09:00.967Z,13.72
2019-01-24T09:10:07.718Z,12.90
2019-01-24T09:11:11.201Z,14.00
2019-01-24T09:12:14.767Z,13.70
2019-01-24T09:13:18.361Z,13.90
2019-01-24T09:14:21.916Z,11.97
2019-01-24T09:15:25.742Z,11.43
2019-01-24T09:16:29.283Z,11.95
2019-01-24T09:17:32.852Z,12.70
2019-01-24T09:18:36.373Z,10.63
2019-01-24T09:19:39.896Z,12.35
2019-01-24T09:20:43.442Z,13.27
2019-01-24T09:21:46.957Z,11.83
2019-01-24T09:22:55.219Z,11.53
2019-01-24T09:23:55.857Z,12.00
2019-01-24T09:24:59.361Z,10.13
2019-01-24T09:26:02.928Z,14.40
2019-01-24T09:27:06.552Z,13.30
2019-01-24T09:28:14.789Z,11.33
2019-01-24T09:29:15.573Z,12.20
2019-01-24T09:30:24.793Z,11.90
2019-01-24T09:31:28.334Z,14.93
2019-01-24T09:32:31.814Z,12.97
2019-01-24T09:33:35.307Z,12.30
2019-01-24T09:34:38.999Z,11.97
2019-01-24T09:35:42.632Z,11.77
2019-01-24T09:36:46.222Z,11.60
2019-01-24T09:37:50.587Z,11.55
2019-01-24T09:38:54.152Z,11.27
2019-01-24T09:39:57.676Z,12.23
2019-01-24T09:41:01.241Z,12.90
2019-01-24T09:42:04.882Z,12.10
2019-01-24T09:43:08.450Z,11.70
2019-01-24T09:44:12.010Z,11.40
2019-01-24T09:45:20.966Z,10.63
2019-01-24T09:46:24.482Z,12.70
2019-01-24T09:47:27.958Z,10.87
2019-01-24T09:48:31.534Z,11.13
2019-01-24T09:49:35.031Z,8.60
2019-01-24T09:50:38.537Z,10.90
2019-01-24T09:51:42.052Z,10.50
2019-01-24T09:52:45.615Z,12.10
2019-01-24T09:53:49.111Z,11.33
2019-01-24T09:54:52.623Z,12.03
2019-01-24T09:55:56.212Z,9.80
2019-01-24T09:56:59.795Z,11.73
2019-01-24T09:58:03.790Z,11.63
2019-01-24T09:59:07.521Z,9.80
2019-01-24T10:00:28.074Z,12.60
2019-01-24T10:01:31.631Z,10.07
2019-01-24T10:02:35.207Z,10.27
2019-01-24T10:03:38.789Z,10.27
2019-01-24T10:04:42.285Z,10.87
2019-01-24T10:05:45.785Z,10.17
2019-01-24T10:06:50.622Z,9.80
2019-01-24T10:07:54.468Z,9.07
2019-01-24T10:08:57.970Z,10.13
2019-01-24T10:10:01.453Z,9.93
2019-01-24T10:11:05.169Z,10.20
2019-01-24T10:12:08.793Z,11.97
2019-01-24T10:13:12.343Z,9.13
2019-01-24T10:14:15.921Z,9.60
2019-01-24T10:15:20.561Z,10.73
2019-01-24T10:16:24.198Z,9.80
2019-01-24T10:17:27.817Z,10.67
2019-01-24T10:18:31.406Z,11.38
2019-01-24T10:19:34.956Z,9.50
2019-01-24T10:20:38.528Z,10.47
2019-01-24T10:21:42.084Z,9.87
2019-01-24T10:22:45.851Z,10.00
2019-01-24T10:23:49.359Z,10.10
2019-01-24T10:24:52.985Z,9.77
2019-01-24T10:25:56.519Z,10.30
2019-01-24T10:27:00.099Z,11.30
2019-01-24T10:28:03.850Z,11.40
2019-01-24T10:29:07.434Z,10.60
2019-01-24T10:30:14.457Z,9.37
2019-01-24T10:31:18.029Z,9.75
2019-01-24T10:32:21.623Z,11.57
2019-01-24T10:33:25.115Z,8.83
2019-01-24T10:34:28.768Z,10.83
2019-01-24T10:35:32.325Z,8.87
2019-01-24T10:36:35.818Z,8.57
2019-01-24T10:37:39.468Z,8.93
2019-01-24T10:38:42.956Z,8.83
2019-01-24T10:39:46.530Z,10.60
2019-01-24T10:40:50.158Z,9.43
2019-01-24T10:41:53.633Z,8.43
2019-01-24T10:42:57.393Z,9.60
2019-01-24T10:44:00.873Z,9.83
2019-01-24T10:45:06.994Z,11.23
2019-01-24T10:46:10.633Z,9.93
2019-01-24T10:47:14.177Z,7.53
2019-01-24T10:48:17.777Z,7.53
2019-01-24T10:49:21.409Z,9.63
2019-01-24T10:50:28.903Z,9.97
2019-01-24T10:51:32.414Z,11.30
2019-01-24T10:52:35.899Z,8.77
2019-01-24T10:53:39.475Z,7.33
2019-01-24T10:54:43.049Z,8.00
2019-01-24T10:55:46.640Z,8.07
2019-01-24T10:56:50.151Z,8.50
2019-01-24T10:57:55.503Z,8.33
2019-01-24T10:58:59.143Z,7.40
2019-01-24T11:00:02.861Z,8.00
2019-01-24T11:01:06.654Z,10.10
2019-01-24T11:02:10.781Z,8.45
2019-01-24T11:03:14.532Z,8.60
2019-01-24T11:04:18.037Z,8.10
2019-01-24T11:05:21.609Z,9.73
2019-01-24T11:06:25.194Z,8.67
2019-01-24T11:07:28.866Z,9.73
2019-01-24T11:08:32.410Z,8.13
2019-01-24T11:09:35.913Z,8.93
2019-01-24T11:10:39.533Z,8.47
2019-01-24T11:11:43.046Z,8.33
2019-01-24T11:12:46.973Z,8.90
2019-01-24T11:13:50.612Z,7.63
2019-01-24T11:14:54.155Z,7.60
2019-01-24T11:15:57.713Z,8.03
2019-01-24T11:17:01.236Z,7.70
2019-01-24T11:18:06.572Z,9.13
2019-01-24T11:19:10.199Z,7.37
2019-01-24T11:20:16.459Z,7.40
2019-01-24T11:21:20.051Z,8.73
2019-01-24T11:22:23.605Z,7.47
2019-01-24T11:23:27.135Z,8.77
2019-01-24T11:24:30.737Z,8.13
2019-01-24T11:25:34.296Z,7.63
2019-01-24T11:26:37.842Z,7.37
2019-01-24T11:27:41.410Z,8.17
2019-01-24T11:28:44.937Z,7.77
2019-01-24T11:29:48.496Z,8.13
2019-01-24T11:30:53.144Z,9.30
2019-01-24T11:31:56.693Z,10.30
2019-01-24T11:33:00.437Z,7.47
2019-01-24T11:34:04.334Z,7.30
2019-01-24T11:35:11.114Z,7.80
2019-01-24T11:36:14.686Z,7.97
2019-01-24T11:37:18.227Z,7.70
2019-01-24T11:38:21.804Z,7.57
2019-01-24T11:39:25.410Z,8.70
2019-01-24T11:40:29.194Z,8.30
2019-01-24T11:41:32.841Z,8.10
2019-01-24T11:42:36.435Z,7.33
2019-01-24T11:43:40.004Z,10.80
2019-01-24T11:44:43.489Z,6.47
2019-01-24T11:45:47.058Z,6.83
2019-01-24T11:46:50.650Z,8.55
2019-01-24T11:47:54.217Z,7.83
2019-01-24T11:48:57.720Z,5.60
2019-01-24T11:50:01.184Z,6.17
2019-01-24T11:51:04.818Z,5.90
2019-01-24T11:52:08.354Z,5.78
2019-01-24T11:53:11.849Z,6.93
2019-01-24T11:54:15.395Z,7.10
2019-01-24T11:55:20.824Z,6.40
2019-01-24T11:56:24.384Z,7.57
2019-01-24T11:57:27.895Z,7.00
2019-01-24T11:58:31.414Z,8.40
2019-01-24T11:59:34.901Z,9.00
2019-01-24T12:00:41.040Z,6.67
2019-01-24T12:01:44.689Z,7.53
2019-01-24T12:02:48.404Z,6.97
2019-01-24T12:03:51.913Z,6.30
2019-01-24T12:04:55.485Z,6.50
2019-01-24T12:05:58.988Z,7.92
2019-01-24T12:07:04.178Z,10.80
2019-01-24T12:08:08.348Z,6.45
2019-01-24T12:09:12.131Z,7.70
2019-01-24T12:10:18.428Z,6.53
2019-01-24T12:11:22.001Z,6.33
2019-01-24T12:12:25.490Z,6.80
2019-01-24T12:13:29.002Z,6.70
2019-01-24T12:14:32.498Z,6.33
2019-01-24T12:15:36.073Z,7.60
2019-01-24T12:16:39.575Z,8.90
2019-01-24T12:17:43.211Z,6.65
2019-01-24T12:18:46.717Z,7.07
2019-01-24T12:19:50.223Z,6.80
2019-01-24T12:20:56.148Z,6.27
2019-01-24T12:21:59.714Z,6.17
2019-01-24T12:23:03.282Z,7.90
2019-01-24T12:24:06.862Z,6.43
2019-01-24T12:25:11.191Z,7.37
2019-01-24T12:26:14.677Z,7.40
2019-01-24T12:27:18.161Z,6.73
2019-01-24T12:28:21.688Z,6.50
2019-01-24T12:29:25.195Z,7.00
2019-01-24T12:30:33.576Z,5.97
2019-01-24T12:31:37.168Z,6.10
2019-01-24T12:32:40.628Z,5.97
2019-01-24T12:33:44.194Z,7.80
2019-01-24T12:34:47.733Z,5.85
2019-01-24T12:35:51.391Z,6.20
2019-01-24T12:36:54.946Z,6.53
2019-01-24T12:37:58.667Z,6.17
2019-01-24T12:39:02.223Z,7.45
2019-01-24T12:40:08.624Z,6.92
2019-01-24T12:41:12.182Z,6.83
2019-01-24T12:42:15.843Z,5.83
2019-01-24T12:43:19.503Z,6.30
2019-01-24T12:44:23.091Z,6.73
2019-01-24T12:45:31.922Z,7.53
2019-01-24T12:46:35.427Z,5.97
2019-01-24T12:47:39.004Z,5.57
2019-01-24T12:48:42.557Z,6.53
2019-01-24T12:49:46.110Z,5.43
2019-01-24T12:50:49.723Z,6.20
2019-01-24T12:51:53.215Z,6.03
2019-01-24T12:52:56.911Z,5.50
2019-01-24T12:54:00.493Z,6.42
2019-01-24T12:55:04.971Z,5.80
2019-01-24T12:56:08.579Z,6.70
2019-01-24T12:57:12.127Z,5.83
2019-01-24T12:58:15.589Z,6.43
2019-01-24T12:59:19.183Z,6.35
2019-01-24T13:00:36.551Z,7.27
2019-01-24T13:01:40.187Z,5.33
2019-01-24T13:02:43.697Z,6.30
2019-01-24T13:03:47.418Z,4.73
2019-01-24T13:04:50.887Z,7.37
2019-01-24T13:05:54.398Z,6.37
2019-01-24T13:06:57.886Z,7.03
2019-01-24T13:08:01.573Z,5.83
2019-01-24T13:09:07.136Z,6.40
2019-01-24T13:10:16.534Z,6.17
2019-01-24T13:11:20.039Z,8.97
2019-01-24T13:12:23.542Z,6.10
2019-01-24T13:13:27.061Z,5.03
2019-01-24T13:14:30.569Z,7.53
2019-01-24T13:15:34.478Z,5.70
2019-01-24T13:16:37.982Z,6.60
2019-01-24T13:17:41.493Z,5.40
2019-01-24T13:18:45.043Z,6.30
2019-01-24T13:19:48.546Z,5.80
2019-01-24T13:20:53.443Z,6.70
2019-01-24T13:21:56.903Z,5.13
2019-01-24T13:23:01.077Z,5.80
2019-01-24T13:24:05.104Z,5.20
2019-01-24T13:25:12.316Z,5.83
2019-01-24T13:26:16.100Z,6.03
2019-01-24T13:27:19.905Z,5.70
2019-01-24T13:28:23.413Z,6.23
2019-01-24T13:29:26.886Z,5.97
2019-01-24T13:30:32.446Z,5.40
2019-01-24T13:31:36.047Z,5.83
2019-01-24T13:32:39.676Z,5.60
2019-01-24T13:33:43.202Z,6.67
2019-01-24T13:34:46.739Z,6.20
2019-01-24T13:35:50.356Z,6.10
2019-01-24T13:36:53.885Z,6.00
2019-01-24T13:37:57.626Z,6.03
2019-01-24T13:39:01.272Z,6.00
2019-01-24T13:40:10.188Z,5.83
2019-01-24T13:41:13.921Z,7.63
2019-01-24T13:42:17.587Z,6.10
2019-01-24T13:43:24.642Z,5.73
2019-01-24T13:44:28.270Z,6.17
2019-01-24T13:45:34.427Z,5.33
2019-01-24T13:46:37.952Z,5.13
2019-01-24T13:47:41.739Z,6.30
2019-01-24T13:48:45.350Z,6.92
2019-01-24T13:49:48.818Z,6.07
2019-01-24T13:50:54.271Z,5.00
2019-01-24T13:51:58.731Z,5.43
2019-01-24T13:53:02.368Z,8.60
2019-01-24T13:54:06.042Z,5.40
2019-01-24T13:55:09.848Z,6.40
2019-01-24T13:56:13.416Z,5.20
2019-01-24T13:57:17.126Z,5.58
2019-01-24T13:58:20.829Z,7.37
2019-01-24T13:59:24.347Z,5.17
2019-01-24T14:00:30.543Z,5.70